createdAt,value
2022-12-25T00:00:55.078Z,30.50
2022-12-25T00:03:21.859Z,19.45
2022-12-25T00:05:48.518Z,20.50
2022-12-25T00:08:15.168Z,22.27
2022-12-25T00:10:45.283Z,23.52
2022-12-25T00:13:12.450Z,23.50
2022-12-25T00:15:42.219Z,22.30
2022-12-25T00:18:08.895Z,18.73
2022-12-25T00:20:35.742Z,25.02
2022-12-25T00:23:02.340Z,19.15
2022-12-25T00:25:29.001Z,20.98
2022-12-25T00:27:55.588Z,23.83
2022-12-25T00:30:22.259Z,19.67
2022-12-25T00:32:48.990Z,21.98
2022-12-25T00:35:15.648Z,18.00
2022-12-25T00:37:42.257Z,25.63
2022-12-25T00:40:09.520Z,19.75
2022-12-25T00:42:36.105Z,18.52
2022-12-25T00:45:02.731Z,22.80
2022-12-25T00:47:29.813Z,19.23
2022-12-25T00:49:56.805Z,20.25
2022-12-25T00:52:23.451Z,27.50
2022-12-25T00:54:50.050Z,26.35
2022-12-25T00:57:16.709Z,17.88
2022-12-25T00:59:43.301Z,21.27
2022-12-25T01:02:25.497Z,20.80
2022-12-25T01:04:54.837Z,22.45
2022-12-25T01:07:23.225Z,20.90
2022-12-25T01:10:08.685Z,15.80
2022-12-25T01:12:38.445Z,25.88
2022-12-25T01:15:06.974Z,19.92
2022-12-25T01:17:33.621Z,18.63
2022-12-25T01:20:00.209Z,19.92
2022-12-25T01:22:27.183Z,22.02
2022-12-25T01:24:53.836Z,20.67
2022-12-25T01:27:20.489Z,21.40
2022-12-25T01:29:47.100Z,20.80
2022-12-25T01:32:13.808Z,29.25
2022-12-25T01:34:40.487Z,25.10
2022-12-25T01:37:07.187Z,16.20
2022-12-25T01:39:34.423Z,17.48
2022-12-25T01:42:01.099Z,18.10
2022-12-25T01:44:36.782Z,21.15
2022-12-25T01:47:07.107Z,20.08
2022-12-25T01:49:36.199Z,19.70
2022-12-25T01:52:10.662Z,16.70
2022-12-25T01:54:52.090Z,18.85
2022-12-25T01:57:24.007Z,18.58
2022-12-25T01:59:50.852Z,20.92
2022-12-25T02:02:17.786Z,19.75
2022-12-25T02:05:11.866Z,21.45
2022-12-25T02:07:41.189Z,19.55
2022-12-25T02:10:10.461Z,14.73
2022-12-25T02:12:37.863Z,18.90
2022-12-25T02:15:38.619Z,20.13
2022-12-25T02:18:33.351Z,18.50
2022-12-25T02:21:09.675Z,15.88
2022-12-25T02:24:03.343Z,19.23
2022-12-25T02:30:13.038Z,16.40
2022-12-25T02:33:16.398Z,17.05
2022-12-25T02:35:47.021Z,18.02
2022-12-25T02:38:22.772Z,24.15
2022-12-25T02:40:53.496Z,18.17
2022-12-25T02:43:45.497Z,17.77
2022-12-25T02:46:34.335Z,13.27
2022-12-25T02:49:27.175Z,16.92
2022-12-25T02:52:20.555Z,15.10
2022-12-25T02:55:19.216Z,16.27
2022-12-25T02:58:09.718Z,13.65
2022-12-25T03:01:00.443Z,12.48
2022-12-25T03:03:49.581Z,13.82
2022-12-25T03:06:35.769Z,11.77
2022-12-25T03:09:23.404Z,14.25
2022-12-25T03:12:01.388Z,12.10
2022-12-25T03:14:47.512Z,14.25
2022-12-25T03:17:14.413Z,14.38
2022-12-25T03:19:59.867Z,16.50
2022-12-25T03:22:50.336Z,13.68
2022-12-25T03:25:36.649Z,14.48
2022-12-25T03:28:04.678Z,12.57
2022-12-25T03:31:01.753Z,15.77
2022-12-25T03:33:46.068Z,15.30
2022-12-25T03:36:33.076Z,14.55
2022-12-25T03:39:29.252Z,16.75
2022-12-25T03:42:19.550Z,21.50
2022-12-25T03:46:08.215Z,16.50
2022-12-25T03:48:58.697Z,14.23
2022-12-25T03:51:49.715Z,16.33
2022-12-25T03:54:39.101Z,13.85
2022-12-25T03:57:25.459Z,10.88
2022-12-25T04:00:10.822Z,13.05
2022-12-25T04:02:56.808Z,12.43
2022-12-25T04:05:42.170Z,13.73
2022-12-25T04:08:27.635Z,18.17
2022-12-25T04:11:12.946Z,17.80
2022-12-25T04:13:58.332Z,16.67
2022-12-25T04:16:44.237Z,13.00
2022-12-25T04:19:29.649Z,13.57
2022-12-25T04:22:15.085Z,16.25
2022-12-25T04:25:00.411Z,12.88
2022-12-25T04:27:45.832Z,12.77
2022-12-25T04:30:31.166Z,16.98
2022-12-25T04:33:17.470Z,11.57
2022-12-25T04:36:07.243Z,15.60
2022-12-25T04:38:33.938Z,11.00
2022-12-25T04:41:01.439Z,17.30
2022-12-25T04:43:28.519Z,15.88
2022-12-25T04:45:55.929Z,12.63
2022-12-25T04:48:22.594Z,11.93
2022-12-25T04:50:49.582Z,16.15
2022-12-25T04:53:17.173Z,17.25
2022-12-25T04:55:44.192Z,17.00
2022-12-25T04:58:10.951Z,12.38
2022-12-25T05:00:37.753Z,13.40
2022-12-25T05:03:04.729Z,15.05
2022-12-25T05:05:31.489Z,9.57
2022-12-25T05:07:58.114Z,14.35
2022-12-25T05:10:24.689Z,15.80
2022-12-25T05:12:51.390Z,13.07
2022-12-25T05:15:18.058Z,14.15
2022-12-25T05:17:44.658Z,12.40
2022-12-25T05:20:11.408Z,12.43
2022-12-25T05:22:37.980Z,15.60
2022-12-25T05:25:04.832Z,17.75
2022-12-25T05:27:31.405Z,18.65
2022-12-25T05:29:58.194Z,11.43
2022-12-25T05:32:24.835Z,15.15
2022-12-25T05:34:51.543Z,15.18
2022-12-25T05:37:18.171Z,15.18
2022-12-25T05:39:44.865Z,12.90
2022-12-25T05:42:11.516Z,12.57
2022-12-25T05:44:38.178Z,13.40
2022-12-25T05:47:04.989Z,12.85
2022-12-25T05:49:32.199Z,13.93
2022-12-25T05:51:58.858Z,19.80
2022-12-25T05:54:25.530Z,15.73
2022-12-25T05:56:52.161Z,19.35
2022-12-25T05:59:18.868Z,13.13
2022-12-25T06:01:46.428Z,12.88
2022-12-25T06:04:13.396Z,14.27
2022-12-25T06:06:40.789Z,14.30
2022-12-25T06:09:07.395Z,18.15
2022-12-25T06:11:33.971Z,16.20
2022-12-25T06:14:00.911Z,15.55
2022-12-25T06:16:30.500Z,17.17
2022-12-25T06:19:00.694Z,15.98
2022-12-25T06:21:27.295Z,16.27
2022-12-25T06:23:53.950Z,14.38
2022-12-25T06:26:20.600Z,15.07
2022-12-25T06:28:47.733Z,15.63
2022-12-25T06:31:20.524Z,13.38
2022-12-25T06:33:47.705Z,20.77
2022-12-25T06:36:26.617Z,18.95
2022-12-25T06:41:26.031Z,11.32
2022-12-25T06:43:55.309Z,17.85
2022-12-25T06:46:23.285Z,18.70
2022-12-25T06:48:50.360Z,21.60
2022-12-25T06:51:22.365Z,13.63
2022-12-25T06:53:49.870Z,16.92
2022-12-25T06:56:24.072Z,16.55
2022-12-25T06:58:53.989Z,16.13
2022-12-25T07:01:28.627Z,12.10
2022-12-25T07:04:02.771Z,12.27
2022-12-25T07:06:29.635Z,13.73
2022-12-25T07:08:56.562Z,15.18
2022-12-25T07:11:23.885Z,13.90
2022-12-25T07:13:50.752Z,14.63
2022-12-25T07:16:17.859Z,15.77
2022-12-25T07:18:44.585Z,14.15
2022-12-25T07:21:16.539Z,15.35
2022-12-25T07:23:44.258Z,13.68
2022-12-25T07:26:12.644Z,10.77
2022-12-25T07:28:39.490Z,14.30
2022-12-25T07:31:09.757Z,12.52
2022-12-25T07:33:36.431Z,11.30
2022-12-25T07:36:05.207Z,14.20
2022-12-25T07:38:32.385Z,14.23
2022-12-25T07:40:59.011Z,11.23
2022-12-25T07:43:25.747Z,18.40
2022-12-25T07:46:00.081Z,15.27
2022-12-25T07:48:27.910Z,15.88
2022-12-25T07:50:58.529Z,13.63
2022-12-25T07:53:25.972Z,14.02
2022-12-25T07:56:07.715Z,18.38
2022-12-25T07:58:34.821Z,19.27
2022-12-25T08:01:18.033Z,14.73
2022-12-25T08:03:52.571Z,20.10
2022-12-25T08:06:20.582Z,16.08
2022-12-25T08:08:47.696Z,17.33
2022-12-25T08:11:14.532Z,22.65
2022-12-25T08:13:41.494Z,11.95
2022-12-25T08:16:10.497Z,13.05
2022-12-25T08:18:38.356Z,15.73
2022-12-25T08:21:08.442Z,17.52
2022-12-25T08:23:36.997Z,15.05
2022-12-25T08:26:05.913Z,15.48
2022-12-25T08:28:34.305Z,15.85
2022-12-25T08:31:07.498Z,15.55
2022-12-25T08:33:34.306Z,16.20
2022-12-25T08:36:08.936Z,18.60
2022-12-25T08:38:35.709Z,13.77
2022-12-25T08:41:02.403Z,19.20
2022-12-25T08:43:29.280Z,19.13
2022-12-25T08:45:55.993Z,16.25
2022-12-25T08:48:22.764Z,19.05
2022-12-25T08:50:51.172Z,15.70
2022-12-25T08:53:18.065Z,15.07
2022-12-25T08:55:44.836Z,15.38
2022-12-25T08:58:11.713Z,17.80
2022-12-25T09:00:38.388Z,18.00
2022-12-25T09:03:05.216Z,15.02
2022-12-25T09:05:38.148Z,11.50
2022-12-25T09:08:05.315Z,14.63
2022-12-25T09:10:34.915Z,15.40
2022-12-25T09:13:01.657Z,17.55
2022-12-25T09:15:28.295Z,13.05
2022-12-25T09:17:54.986Z,14.07
2022-12-25T09:20:21.756Z,16.83
2022-12-25T09:22:48.364Z,14.25
2022-12-25T09:25:15.094Z,14.75
2022-12-25T09:27:43.541Z,13.88
2022-12-25T09:30:10.672Z,14.73
2022-12-25T09:32:40.128Z,13.77
2022-12-25T09:35:07.992Z,12.63
2022-12-25T09:37:34.659Z,11.80
2022-12-25T09:40:01.450Z,12.60
2022-12-25T09:42:34.463Z,15.85
2022-12-25T09:45:07.134Z,12.65
2022-12-25T09:47:38.327Z,13.93
2022-12-25T09:50:14.822Z,14.32
2022-12-25T09:52:51.360Z,17.45
2022-12-25T09:55:21.376Z,16.52
2022-12-25T09:57:57.247Z,16.23
2022-12-25T10:00:26.163Z,17.50
2022-12-25T10:03:01.683Z,17.90
2022-12-25T10:06:06.166Z,12.02
2022-12-25T10:08:58.468Z,15.85
2022-12-25T10:12:08.987Z,11.93
2022-12-25T10:18:02.217Z,15.25
2022-12-25T10:20:47.631Z,11.13
2022-12-25T10:23:19.595Z,17.02
2022-12-25T10:25:47.395Z,9.30
2022-12-25T10:28:37.508Z,14.32
2022-12-25T10:31:19.832Z,14.95
2022-12-25T10:33:48.433Z,13.88
2022-12-25T10:36:19.092Z,10.90
2022-12-25T10:38:47.027Z,13.57
2022-12-25T10:41:25.602Z,13.30
2022-12-25T10:43:55.195Z,12.63
2022-12-25T10:46:24.179Z,14.65
2022-12-25T10:48:53.219Z,14.88
2022-12-25T10:51:32.280Z,14.15
2022-12-25T10:53:59.345Z,15.10
2022-12-25T10:56:26.000Z,12.63
2022-12-25T10:59:07.470Z,13.40
2022-12-25T11:01:34.359Z,14.93
2022-12-25T11:04:01.258Z,15.88
2022-12-25T11:06:32.013Z,12.68
2022-12-25T11:09:01.007Z,11.50
2022-12-25T11:11:29.615Z,12.88
2022-12-25T11:14:02.456Z,14.00
2022-12-25T11:16:39.926Z,15.95
2022-12-25T11:19:29.834Z,14.73
2022-12-25T11:22:00.970Z,11.50
2022-12-25T11:24:30.921Z,16.70
2022-12-25T11:27:00.485Z,11.35
2022-12-25T11:29:41.491Z,13.48
2022-12-25T11:32:34.697Z,14.65
2022-12-25T11:35:02.526Z,12.50
2022-12-25T11:37:34.903Z,10.32
2022-12-25T11:40:02.443Z,13.38
2022-12-25T11:42:37.887Z,11.20
2022-12-25T11:45:23.507Z,9.80
2022-12-25T11:47:57.557Z,11.25
2022-12-25T11:50:47.008Z,13.55
2022-12-25T11:53:34.998Z,13.02
2022-12-25T11:56:33.922Z,12.18
2022-12-25T11:59:18.258Z,11.23
2022-12-25T12:02:03.673Z,11.85
2022-12-25T12:07:29.039Z,13.82
2022-12-25T12:10:25.506Z,10.80
2022-12-25T12:13:11.098Z,13.93
2022-12-25T12:15:49.075Z,12.02
2022-12-25T12:18:27.795Z,13.52
2022-12-25T12:20:58.478Z,15.27
2022-12-25T12:23:26.834Z,13.40
2022-12-25T12:25:53.972Z,13.77
2022-12-25T12:28:25.045Z,15.60
2022-12-25T12:31:12.094Z,15.40
2022-12-25T12:33:43.887Z,13.38
2022-12-25T12:36:14.648Z,16.55
2022-12-25T12:38:43.565Z,12.55
2022-12-25T12:41:12.535Z,15.13
2022-12-25T12:43:59.072Z,14.60
2022-12-25T12:46:35.796Z,15.00
2022-12-25T12:49:11.395Z,13.48
2022-12-25T12:51:38.782Z,14.82
2022-12-25T12:54:18.181Z,14.18
2022-12-25T12:57:01.309Z,12.35
2022-12-25T12:59:38.891Z,13.30
2022-12-25T13:02:40.757Z,13.98
2022-12-25T13:05:18.426Z,13.90
2022-12-25T13:07:54.246Z,11.40
2022-12-25T13:10:32.310Z,11.48
2022-12-25T13:13:02.904Z,12.05
2022-12-25T13:15:34.060Z,15.15
2022-12-25T13:18:07.407Z,13.65
2022-12-25T13:20:49.616Z,11.10
2022-12-25T13:23:32.602Z,11.70
2022-12-25T13:26:19.529Z,11.82
2022-12-25T13:28:47.112Z,14.05
2022-12-25T13:31:13.821Z,11.43
2022-12-25T13:33:45.102Z,11.30
2022-12-25T13:36:13.627Z,10.43
2022-12-25T13:38:45.776Z,9.23
2022-12-25T13:41:37.134Z,11.45
2022-12-25T13:44:06.550Z,10.80
2022-12-25T13:46:33.162Z,10.02
2022-12-25T13:49:01.279Z,9.30
2022-12-25T13:51:28.475Z,12.05
2022-12-25T13:54:05.652Z,11.15
2022-12-25T13:56:34.036Z,13.02
2022-12-25T13:59:00.810Z,12.52
2022-12-25T14:01:28.493Z,17.52
2022-12-25T14:03:55.489Z,42.45
2022-12-25T14:06:30.700Z,12.75
2022-12-25T14:08:58.748Z,10.50
2022-12-25T14:11:28.010Z,10.88
2022-12-25T14:14:02.013Z,9.30
2022-12-25T14:16:29.283Z,10.38
2022-12-25T14:19:01.071Z,9.32
2022-12-25T14:21:27.644Z,12.52
2022-12-25T14:23:54.745Z,13.80
2022-12-25T14:26:27.600Z,9.30
2022-12-25T14:29:13.940Z,10.65
2022-12-25T14:31:44.077Z,10.43
2022-12-25T14:34:21.151Z,10.25
2022-12-25T14:36:48.923Z,9.85
2022-12-25T14:39:34.708Z,10.63
2022-12-25T14:42:22.969Z,13.38
2022-12-25T14:45:06.226Z,9.43
2022-12-25T14:47:39.230Z,16.60
2022-12-25T14:50:24.503Z,10.75
2022-12-25T14:52:51.172Z,9.93
2022-12-25T14:55:23.914Z,10.60
2022-12-25T14:58:00.979Z,10.60
2022-12-25T15:00:35.545Z,10.55
2022-12-25T15:03:05.217Z,7.90
2022-12-25T15:05:36.710Z,8.75
2022-12-25T15:08:23.639Z,12.20
2022-12-25T15:11:00.499Z,8.15
2022-12-25T15:13:30.249Z,8.25
2022-12-25T15:15:59.236Z,10.20
2022-12-25T15:18:30.683Z,11.65
2022-12-25T15:20:57.602Z,10.40
2022-12-25T15:23:25.474Z,11.25
2022-12-25T15:25:52.402Z,10.15
2022-12-25T15:28:19.138Z,11.55
2022-12-25T15:30:45.948Z,11.25
2022-12-25T15:33:17.600Z,10.95
2022-12-25T15:35:44.804Z,9.70
2022-12-25T15:38:12.797Z,10.25
2022-12-25T15:40:40.562Z,10.07
2022-12-25T15:43:14.624Z,12.65
2022-12-25T15:45:49.087Z,11.25
2022-12-25T15:48:15.726Z,12.65
2022-12-25T15:50:43.559Z,10.23
2022-12-25T15:53:11.038Z,11.27
2022-12-25T15:55:38.032Z,9.95
2022-12-25T15:58:04.627Z,12.77
2022-12-25T16:00:31.412Z,11.68
2022-12-25T16:02:58.100Z,11.82
2022-12-25T16:05:24.913Z,10.50
2022-12-25T16:07:51.548Z,11.45
2022-12-25T16:10:19.604Z,12.05
2022-12-25T16:12:46.835Z,9.85
2022-12-25T16:15:15.128Z,11.13
2022-12-25T16:17:42.522Z,11.88
2022-12-25T16:20:09.861Z,9.85
2022-12-25T16:22:39.994Z,11.32
2022-12-25T16:25:18.345Z,11.77
2022-12-25T16:27:45.470Z,11.27
2022-12-25T16:30:14.775Z,10.93
2022-12-25T16:32:42.351Z,12.50
2022-12-25T16:35:10.538Z,12.35
2022-12-25T16:37:37.542Z,11.27
2022-12-25T16:40:05.427Z,10.38
2022-12-25T16:42:32.125Z,12.75
2022-12-25T16:44:58.737Z,10.75
2022-12-25T16:47:25.763Z,13.68
2022-12-25T16:49:52.463Z,11.60
2022-12-25T16:52:19.203Z,10.77
2022-12-25T16:54:46.558Z,12.75
2022-12-25T16:57:14.069Z,11.82
2022-12-25T16:59:41.444Z,9.93
2022-12-25T17:02:14.864Z,11.02
2022-12-25T17:04:41.626Z,10.30
2022-12-25T17:07:08.212Z,9.32
2022-12-25T17:09:40.379Z,11.82
2022-12-25T17:12:10.503Z,9.45
2022-12-25T17:14:37.194Z,14.32
2022-12-25T17:17:03.910Z,13.00
2022-12-25T17:19:30.745Z,12.13
2022-12-25T17:21:59.627Z,9.70
2022-12-25T17:24:27.064Z,10.05
2022-12-25T17:26:53.799Z,11.95
2022-12-25T17:29:22.749Z,11.02
2022-12-25T17:31:50.218Z,9.77
2022-12-25T17:34:17.135Z,11.88
2022-12-25T17:36:43.781Z,11.27
2022-12-25T17:39:10.869Z,11.43
2022-12-25T17:41:37.606Z,11.75
2022-12-25T17:44:04.393Z,11.15
2022-12-25T17:46:31.404Z,10.30
2022-12-25T17:48:59.843Z,12.52
2022-12-25T17:51:30.810Z,11.45
2022-12-25T17:54:03.068Z,9.95
2022-12-25T17:56:30.224Z,9.88
2022-12-25T17:58:59.077Z,9.60
2022-12-25T18:01:27.940Z,11.73
2022-12-25T18:03:55.291Z,11.18
2022-12-25T18:06:25.335Z,12.30
2022-12-25T18:08:53.696Z,13.45
2022-12-25T18:11:23.172Z,10.93
2022-12-25T18:13:52.055Z,10.95
2022-12-25T18:16:20.926Z,11.80
2022-12-25T18:18:51.938Z,16.55
2022-12-25T18:21:21.599Z,12.10
2022-12-25T18:23:48.957Z,10.25
2022-12-25T18:26:15.644Z,12.18
2022-12-25T18:28:43.755Z,11.65
2022-12-25T18:31:16.896Z,13.00
2022-12-25T18:33:44.538Z,12.88
2022-12-25T18:36:13.035Z,10.05
2022-12-25T18:38:40.025Z,12.85
2022-12-25T18:41:08.421Z,13.88
2022-12-25T18:43:52.401Z,12.88
2022-12-25T18:46:23.921Z,12.70
2022-12-25T18:48:51.144Z,12.32
2022-12-25T18:51:18.499Z,12.93
2022-12-25T18:53:45.135Z,11.45
2022-12-25T18:56:15.196Z,12.60
2022-12-25T18:58:42.835Z,12.65
2022-12-25T19:01:11.267Z,12.02
2022-12-25T19:03:38.007Z,14.00
2022-12-25T19:06:04.948Z,13.10
2022-12-25T19:08:31.566Z,13.25
2022-12-25T19:10:58.160Z,12.88
2022-12-25T19:13:24.732Z,13.48
2022-12-25T19:15:51.435Z,14.70
2022-12-25T19:18:18.001Z,14.57
2022-12-25T19:20:44.688Z,11.38
2022-12-25T19:23:11.370Z,14.38
2022-12-25T19:25:39.541Z,13.60
2022-12-25T19:28:06.186Z,15.00
2022-12-25T19:30:32.844Z,12.55
2022-12-25T19:32:59.599Z,15.52
2022-12-25T19:35:26.183Z,13.18
2022-12-25T19:37:52.861Z,13.05
2022-12-25T19:40:19.678Z,13.75
2022-12-25T19:42:46.366Z,11.98
2022-12-25T19:45:12.988Z,12.63
2022-12-25T19:47:39.654Z,12.10
2022-12-25T19:50:06.816Z,11.40
2022-12-25T19:52:33.388Z,11.00
2022-12-25T19:55:00.102Z,10.18
2022-12-25T19:57:26.768Z,13.73
2022-12-25T19:59:53.404Z,11.55
2022-12-25T20:02:20.074Z,12.20
2022-12-25T20:04:46.873Z,11.90
2022-12-25T20:07:13.459Z,10.77
2022-12-25T20:09:40.427Z,12.93
2022-12-25T20:12:10.234Z,10.35
2022-12-25T20:14:36.890Z,12.45
2022-12-25T20:17:03.665Z,11.82
2022-12-25T20:19:30.308Z,11.40
2022-12-25T20:21:58.523Z,10.85
2022-12-25T20:24:25.145Z,10.57
2022-12-25T20:26:58.572Z,12.07
2022-12-25T20:29:25.561Z,11.90
2022-12-25T20:31:52.252Z,9.85
2022-12-25T20:34:18.879Z,10.18
2022-12-25T20:36:45.544Z,12.70
2022-12-25T20:39:12.923Z,12.77
2022-12-25T20:41:40.651Z,11.57
2022-12-25T20:44:09.859Z,11.38
2022-12-25T20:46:37.050Z,11.10
2022-12-25T20:49:03.754Z,11.38
2022-12-25T20:51:30.451Z,11.27
2022-12-25T20:53:57.593Z,12.75
2022-12-25T20:56:26.304Z,11.52
2022-12-25T20:58:55.168Z,12.77
2022-12-25T21:01:22.225Z,11.02
2022-12-25T21:03:49.001Z,12.75
2022-12-25T21:06:15.751Z,11.60
2022-12-25T21:08:42.539Z,13.88
2022-12-25T21:11:10.234Z,12.82
2022-12-25T21:13:40.355Z,10.00
2022-12-25T21:16:10.209Z,11.10
2022-12-25T21:18:37.118Z,11.32
2022-12-25T21:21:07.139Z,11.05
2022-12-25T21:23:35.637Z,12.70
2022-12-25T21:26:29.211Z,10.60
2022-12-25T21:28:57.855Z,13.25
2022-12-25T21:31:25.403Z,11.68
2022-12-25T21:33:53.855Z,12.95
2022-12-25T21:36:32.153Z,12.98
2022-12-25T21:38:58.757Z,13.85
2022-12-25T21:41:26.694Z,13.13
2022-12-25T21:43:54.116Z,10.73
2022-12-25T21:46:20.989Z,13.68
2022-12-25T21:48:48.279Z,11.55
2022-12-25T21:51:39.688Z,12.77
2022-12-25T21:56:41.483Z,11.93
2022-12-25T21:59:12.329Z,11.85
2022-12-25T22:01:39.137Z,11.65
2022-12-25T22:04:08.721Z,15.35
2022-12-25T22:06:54.073Z,13.90
2022-12-25T22:09:21.986Z,13.48
2022-12-25T22:12:07.419Z,12.40
2022-12-25T22:14:55.485Z,12.20
2022-12-25T22:17:50.002Z,13.02
2022-12-25T22:20:19.747Z,12.65
2022-12-25T22:22:46.482Z,12.07
2022-12-25T22:25:14.472Z,13.40
2022-12-25T22:27:43.141Z,10.68
2022-12-25T22:30:18.988Z,13.30
2022-12-25T22:32:46.328Z,12.27
2022-12-25T22:35:13.821Z,13.45
2022-12-25T22:37:42.136Z,11.88
2022-12-25T22:40:12.137Z,11.88
2022-12-25T22:42:38.886Z,12.43
2022-12-25T22:45:06.082Z,12.68
2022-12-25T22:47:32.747Z,11.05
2022-12-25T22:49:59.355Z,12.88
2022-12-25T22:52:26.399Z,9.48
2022-12-25T22:54:53.184Z,11.13
2022-12-25T22:57:19.874Z,15.25
2022-12-25T22:59:46.493Z,11.98
2022-12-25T23:02:13.229Z,11.40
2022-12-25T23:04:40.036Z,11.32
2022-12-25T23:07:06.734Z,12.73
2022-12-25T23:09:34.249Z,11.80
2022-12-25T23:12:00.907Z,11.27
2022-12-25T23:14:39.739Z,11.05
2022-12-25T23:20:14.661Z,10.48
2022-12-25T23:22:59.946Z,11.30
2022-12-25T23:25:45.400Z,11.57
2022-12-25T23:28:11.970Z,11.35
2022-12-25T23:30:38.715Z,10.25
2022-12-25T23:33:05.441Z,12.82
2022-12-25T23:35:32.075Z,11.45
2022-12-25T23:37:58.697Z,11.00
2022-12-25T23:40:25.309Z,13.30
2022-12-25T23:42:51.943Z,14.43
2022-12-25T23:45:18.559Z,10.27
2022-12-25T23:47:48.210Z,9.43
2022-12-25T23:50:15.143Z,11.77
2022-12-25T23:52:41.793Z,10.95
2022-12-25T23:55:08.887Z,11.07
2022-12-25T23:57:35.535Z,11.45
